createdAt,value
2024-01-21T00:04:19.736Z,2.47
2024-01-21T00:09:26.716Z,2.30
2024-01-21T00:14:34.564Z,2.45
2024-01-21T00:19:41.510Z,1.03
2024-01-21T00:24:48.958Z,2.97
2024-01-21T00:29:56.943Z,2.10
2024-01-21T00:35:04.741Z,1.85
2024-01-21T00:40:16.804Z,1.73
2024-01-21T00:45:25.614Z,3.10
2024-01-21T00:50:32.399Z,2.27
2024-01-21T00:55:39.097Z,2.03
2024-01-21T01:00:47.083Z,2.72
2024-01-21T01:05:53.556Z,1.93
2024-01-21T01:11:00.323Z,2.70
2024-01-21T01:16:09.653Z,3.03
2024-01-21T01:21:16.005Z,1.70
2024-01-21T01:26:22.904Z,2.45
2024-01-21T01:31:30.955Z,1.77
2024-01-21T01:36:37.484Z,2.20
2024-01-21T01:41:43.908Z,2.50
2024-01-21T01:46:52.338Z,2.55
2024-01-21T01:51:59.450Z,2.20
2024-01-21T01:57:09.042Z,3.03
2024-01-21T02:02:18.952Z,2.78
2024-01-21T02:07:25.054Z,2.63
2024-01-21T02:12:32.443Z,3.28
2024-01-21T02:17:40.480Z,2.85
2024-01-21T02:22:48.247Z,3.33
2024-01-21T02:27:55.947Z,2.92
2024-01-21T02:33:02.229Z,2.33
2024-01-21T02:38:08.703Z,2.90
2024-01-21T02:43:16.370Z,2.65
2024-01-21T02:48:22.620Z,2.30
2024-01-21T02:53:28.994Z,3.25
2024-01-21T02:58:37.309Z,3.35
2024-01-21T03:03:44.056Z,3.28
2024-01-21T03:08:50.873Z,3.08
2024-01-21T03:13:58.767Z,2.67
2024-01-21T03:19:05.080Z,4.13
2024-01-21T03:24:11.447Z,3.05
2024-01-21T03:29:19.282Z,3.65
2024-01-21T03:34:25.381Z,3.42
2024-01-21T03:39:31.777Z,3.47
2024-01-21T03:44:39.586Z,3.90
2024-01-21T03:49:48.035Z,3.45
2024-01-21T04:00:02.410Z,6.80
2024-01-21T04:05:18.415Z,6.45
2024-01-21T04:10:24.944Z,4.93
2024-01-21T04:15:32.857Z,5.32
2024-01-21T04:20:39.506Z,4.23
2024-01-21T04:25:45.890Z,3.90
2024-01-21T04:30:54.817Z,4.15
2024-01-21T04:36:01.207Z,5.97
2024-01-21T04:41:07.698Z,11.10
2024-01-21T04:46:15.737Z,7.30
2024-01-21T04:51:22.158Z,5.40
2024-01-21T04:56:28.709Z,5.15
2024-01-21T05:01:42.605Z,5.18
2024-01-21T05:06:49.424Z,6.07
2024-01-21T05:11:55.950Z,7.00
2024-01-21T05:17:04.485Z,10.68
2024-01-21T05:22:10.858Z,10.68
2024-01-21T05:27:17.555Z,13.13
2024-01-21T05:32:25.159Z,10.65
2024-01-21T05:37:31.552Z,10.65
2024-01-21T05:42:37.938Z,13.45
2024-01-21T05:47:45.885Z,12.07
2024-01-21T05:52:52.123Z,16.73
2024-01-21T05:57:58.152Z,17.55
2024-01-21T06:03:06.593Z,15.15
2024-01-21T06:08:13.172Z,14.20
2024-01-21T06:13:19.613Z,12.63
2024-01-21T06:18:28.040Z,12.00
2024-01-21T06:23:34.253Z,11.48
2024-01-21T06:28:40.518Z,13.70
2024-01-21T06:33:48.410Z,14.10
2024-01-21T06:38:54.911Z,14.13
2024-01-21T06:44:01.340Z,13.63
2024-01-21T06:49:09.224Z,14.02
2024-01-21T06:54:15.775Z,12.90
2024-01-21T06:59:23.894Z,10.30
2024-01-21T07:04:32.772Z,11.57
2024-01-21T07:09:43.323Z,14.73
2024-01-21T07:14:50.090Z,26.45
2024-01-21T07:19:58.106Z,23.73
2024-01-21T07:25:05.536Z,29.43
2024-01-21T07:30:14.472Z,82.50
2024-01-21T07:40:28.585Z,70.53
2024-01-21T07:45:35.215Z,64.88
2024-01-21T07:50:43.124Z,70.18
2024-01-21T07:55:49.717Z,73.90
2024-01-21T08:00:56.327Z,86.40
2024-01-21T08:06:05.986Z,95.03
2024-01-21T08:11:12.386Z,169.65
2024-01-21T08:16:18.538Z,101.05
2024-01-21T08:21:26.157Z,85.95
2024-01-21T08:26:32.630Z,76.18
2024-01-21T08:31:45.569Z,71.25
2024-01-21T08:36:53.514Z,89.03
2024-01-21T08:42:00.038Z,76.53
2024-01-21T08:47:06.918Z,73.22
2024-01-21T08:52:14.899Z,64.45
2024-01-21T08:57:21.274Z,53.87
2024-01-21T09:02:28.401Z,50.63
2024-01-21T09:07:36.177Z,24.10
2024-01-21T09:12:42.789Z,21.45
2024-01-21T09:17:49.280Z,20.58
2024-01-21T09:22:57.121Z,17.60
2024-01-21T09:28:03.544Z,14.23
2024-01-21T09:33:10.508Z,12.57
2024-01-21T09:38:20.385Z,13.55
2024-01-21T10:02:18.873Z,14.18
2024-01-21T10:07:28.055Z,13.43
2024-01-21T10:12:36.551Z,15.02
2024-01-21T10:17:45.372Z,14.20
2024-01-21T10:22:52.912Z,12.75
2024-01-21T10:27:59.420Z,13.55
2024-01-21T10:33:08.111Z,14.40
2024-01-21T10:38:16.433Z,12.85
2024-01-21T10:43:24.338Z,13.33
2024-01-21T10:48:34.923Z,15.07
2024-01-21T10:53:44.291Z,13.50
2024-01-21T10:58:51.593Z,13.38
2024-01-21T11:04:10.560Z,14.15
2024-01-21T11:09:19.091Z,13.43
2024-01-21T11:14:33.253Z,11.85
2024-01-21T11:19:52.642Z,12.45
2024-01-21T11:24:59.301Z,12.85
2024-01-21T11:30:06.538Z,13.38
2024-01-21T11:35:17.924Z,13.05
2024-01-21T11:40:24.346Z,12.60
2024-01-21T11:45:30.899Z,14.10
2024-01-21T11:50:39.246Z,13.45
2024-01-21T11:55:49.123Z,13.15
2024-01-21T12:00:55.435Z,11.88
2024-01-21T12:06:03.513Z,11.90
2024-01-21T12:11:10.608Z,11.82
2024-01-21T12:16:19.397Z,11.00
2024-01-21T12:26:36.197Z,13.23
2024-01-21T12:31:43.904Z,13.95
2024-01-21T12:36:55.068Z,11.52
2024-01-21T12:42:01.581Z,12.88
2024-01-21T12:47:09.150Z,13.43
2024-01-21T12:52:17.071Z,11.13
2024-01-21T12:57:23.735Z,12.27
2024-01-21T13:02:30.320Z,12.65
2024-01-21T13:07:38.582Z,11.82
2024-01-21T13:12:45.634Z,12.27
2024-01-21T13:17:52.222Z,13.00
2024-01-21T13:23:01.189Z,10.82
2024-01-21T13:28:29.503Z,9.52
2024-01-21T13:33:36.643Z,10.20
2024-01-21T13:38:45.280Z,9.30
2024-01-21T13:43:52.131Z,11.77
2024-01-21T13:48:58.710Z,11.63
2024-01-21T13:54:06.847Z,12.00
2024-01-21T13:59:13.575Z,11.77
2024-01-21T14:04:20.490Z,10.73
2024-01-21T14:09:28.682Z,11.32
2024-01-21T14:14:35.473Z,13.53
2024-01-21T14:19:43.865Z,11.07
2024-01-21T14:24:57.056Z,12.65
2024-01-21T14:30:08.872Z,11.18
2024-01-21T14:35:15.798Z,11.55
2024-01-21T14:40:27.902Z,11.65
2024-01-21T14:45:35.174Z,11.80
2024-01-21T14:50:41.644Z,11.40
2024-01-21T14:55:49.664Z,10.73
2024-01-21T15:00:55.975Z,11.23
2024-01-21T15:06:02.574Z,8.93
2024-01-21T15:11:11.457Z,10.05
2024-01-21T15:21:24.576Z,9.18
2024-01-21T15:26:32.917Z,10.35
2024-01-21T15:31:39.647Z,10.32
2024-01-21T15:36:46.179Z,9.95
2024-01-21T15:41:56.541Z,10.80
2024-01-21T15:47:03.138Z,10.05
2024-01-21T15:52:10.070Z,9.55
2024-01-21T15:57:18.403Z,10.75
2024-01-21T16:02:25.383Z,9.97
2024-01-21T16:07:32.638Z,10.80
2024-01-21T16:12:43.238Z,11.38
2024-01-21T16:17:50.565Z,9.43
2024-01-21T16:22:58.112Z,11.32
2024-01-21T16:28:07.446Z,9.88
2024-01-21T16:33:15.103Z,9.52
2024-01-21T16:38:22.095Z,9.05
2024-01-21T16:43:30.002Z,8.43
2024-01-21T16:48:37.060Z,10.18
2024-01-21T16:53:44.176Z,13.57
2024-01-21T16:58:57.920Z,12.75
2024-01-21T17:04:05.427Z,12.57
2024-01-21T17:09:12.706Z,11.77
2024-01-21T17:14:23.381Z,10.68
2024-01-21T17:19:31.208Z,8.88
2024-01-21T17:24:39.152Z,8.68
2024-01-21T17:29:47.796Z,8.43
2024-01-21T17:34:54.822Z,8.32
2024-01-21T17:40:02.833Z,9.10
2024-01-21T17:45:28.334Z,9.82
2024-01-21T17:50:38.380Z,9.88
2024-01-21T17:55:48.400Z,9.15
2024-01-21T18:01:00.008Z,7.90
2024-01-21T18:06:08.226Z,9.13
2024-01-21T18:11:16.571Z,8.32
2024-01-21T18:16:26.303Z,8.77
2024-01-21T18:21:36.943Z,7.53
2024-01-21T18:26:45.704Z,8.88
2024-01-21T18:37:06.732Z,8.43
2024-01-21T18:42:15.874Z,9.70
2024-01-21T18:47:28.291Z,8.88
2024-01-21T18:52:38.765Z,9.45
2024-01-21T18:57:48.822Z,9.60
2024-01-21T19:02:59.980Z,9.20
2024-01-21T19:08:10.308Z,13.77
2024-01-21T19:13:20.180Z,13.23
2024-01-21T19:18:32.470Z,10.05
2024-01-21T19:23:42.805Z,11.88
2024-01-21T19:28:55.604Z,9.98
2024-01-21T19:34:07.540Z,10.77
2024-01-21T19:39:17.444Z,11.23
2024-01-21T19:44:26.749Z,10.88
2024-01-21T19:49:38.941Z,10.55
2024-01-21T19:54:49.213Z,10.07
2024-01-21T19:59:59.161Z,11.13
2024-01-21T20:05:16.265Z,10.02
2024-01-21T20:10:29.863Z,10.35
2024-01-21T20:15:40.521Z,9.35
2024-01-21T20:20:54.260Z,8.93
2024-01-21T20:26:06.139Z,8.32
2024-01-21T20:31:16.349Z,8.60
2024-01-21T20:36:27.873Z,8.32
2024-01-21T20:41:37.285Z,8.77
2024-01-21T20:46:46.553Z,7.82
2024-01-21T20:51:58.092Z,8.93
2024-01-21T20:57:07.162Z,8.38
2024-01-21T21:07:24.071Z,10.32
2024-01-21T21:12:30.609Z,9.10
2024-01-21T21:17:37.890Z,10.07
2024-01-21T21:22:46.795Z,9.10
2024-01-21T21:27:53.651Z,9.18
2024-01-21T21:33:03.069Z,9.77
2024-01-21T21:38:11.802Z,9.18
2024-01-21T21:43:18.343Z,10.18
2024-01-21T21:48:25.003Z,9.20
2024-01-21T21:53:33.367Z,9.75
2024-01-21T21:58:40.192Z,8.82
2024-01-21T22:03:46.823Z,8.82
2024-01-21T22:08:55.562Z,9.65
2024-01-21T22:14:02.760Z,8.70
2024-01-21T22:19:11.683Z,10.05
2024-01-21T22:24:19.717Z,11.45
2024-01-21T22:29:26.303Z,9.55
2024-01-21T22:34:32.856Z,10.70
2024-01-21T22:39:40.668Z,12.80
2024-01-21T22:44:48.075Z,11.05
2024-01-21T22:49:55.189Z,11.70
2024-01-21T22:55:03.470Z,10.90
2024-01-21T23:00:12.756Z,11.57
2024-01-21T23:05:20.918Z,10.13
2024-01-21T23:10:29.584Z,11.13
2024-01-21T23:15:36.234Z,10.67
2024-01-21T23:20:43.025Z,10.98
2024-01-21T23:25:50.958Z,10.95
2024-01-21T23:30:58.259Z,11.37
2024-01-21T23:36:05.387Z,10.88
2024-01-21T23:41:13.494Z,10.73
2024-01-21T23:46:21.172Z,11.60
2024-01-21T23:51:28.193Z,11.23
2024-01-21T23:56:36.260Z,11.15
